M I D A S
Marine Information and Data Acquisition System
Tripno 2148 of the Zeeleeuw from 2011-07-19 06:41:00 to 2011-07-19 14:12:29
Back to CruiseResearch ActivitiesStationsMapUnderway DataData graphs

EquipmentUnitsComment
TimeDGPSUTC
LatitudeDGPSDM.mWGS84
LongitudeDGPSDM.mWGS84
HeadingGyrodeg 
SOGDGPSknotsSpeed over ground
COGDGPSdegCourse over ground
DepthEcho soundermeters200 kHz
Missing or incorrect values are displayed as -999
Navigation data collected by the RV Zeeleeuw from 2011-07-19 06:43:17 to 2011-07-19 14:18:08
Time Latitude Longitude Heading SOG COG Depth
2011-07-19 06:44:24 51°13.642 2°55.994 113.3 2.8 296 -999
2011-07-19 06:45:26 51°13.671 2°55.889 110.2 4.9 290 -999
2011-07-19 06:46:26 51°13.689 2°55.779 98.8 3.4 284 -999
2011-07-19 06:47:27 51°13.697 2°55.753 59.6 1.1 33 -999
2011-07-19 06:48:26 51°13.688 2°55.743 25.9 1.8 209 -999
2011-07-19 06:49:26 51°13.703 2°55.729 338.7 3.2 336 4.8
2011-07-19 06:50:26 51°13.785 2°55.666 335.6 7 335 -999
2011-07-19 06:51:26 51°13.908 2°55.586 338.1 8.6 337 11.3
2011-07-19 06:52:25 51°14.04 2°55.484 336.9 9.4 335 11.3
2011-07-19 06:53:25 51°14.184 2°55.369 333.5 9.9 332 11.3
2011-07-19 06:54:26 51°14.334 2°55.235 330.9 10.5 330 11.3
2011-07-19 06:55:25 51°14.484 2°55.089 329 11.2 326 11.4
2011-07-19 06:56:23 51°14.642 2°54.9 328.5 12.9 322 11.9
2011-07-19 06:57:21 51°14.812 2°54.715 333.7 12.7 330 12
2011-07-19 06:58:22 51°14.999 2°54.543 332.1 12.7 326 10.5
2011-07-19 06:59:22 51°15.162 2°54.326 321.8 12.9 320 11.3
2011-07-19 07:00:22 51°15.337 2°54.126 327.7 13 325 11
2011-07-19 07:01:22 51°15.504 2°53.908 326.4 12.8 324 11.9
2011-07-19 07:02:22 51°15.676 2°53.711 326.1 12.8 322 11.3
2011-07-19 07:03:22 51°15.843 2°53.499 325.1 12.8 323 12.2
2011-07-19 07:04:22 51°16.032 2°53.345 339.8 12.8 335 11.5
2011-07-19 07:05:22 51°16.219 2°53.187 337 12.7 334 11.9
2011-07-19 07:06:22 51°16.405 2°53.026 332.5 12.8 329 12.2
2011-07-19 07:07:22 51°16.595 2°52.877 342.7 12.7 339 11.6
2011-07-19 07:08:22 51°16.787 2°52.742 336.7 12.6 333 9.8
2011-07-19 07:09:22 51°16.974 2°52.591 336.5 12.7 334 10
2011-07-19 07:10:22 51°17.169 2°52.466 343.6 12.7 340 10.1
2011-07-19 07:11:22 51°17.363 2°52.333 336.9 12.7 333 10.5
2011-07-19 07:12:22 51°17.554 2°52.188 341.9 12.7 339 11.3
2011-07-19 07:13:22 51°17.748 2°52.053 336.7 12.7 332 10.8
2011-07-19 07:14:22 51°17.94 2°51.914 343.2 12.7 339 10.6
2011-07-19 07:15:22 51°18.13 2°51.764 335.9 12.8 332 10.9
2011-07-19 07:16:21 51°18.322 2°51.629 342.6 12.8 338 11.9
2011-07-19 07:17:21 51°18.515 2°51.483 336.1 12.9 332 13
2011-07-19 07:18:22 51°18.71 2°51.328 337 12.9 334 14.2
2011-07-19 07:19:22 51°18.907 2°51.194 340.5 12.9 336 14.7
2011-07-19 07:20:21 51°19.098 2°51.054 339.6 12.8 336 15
2011-07-19 07:21:23 51°19.3 2°50.909 337.8 12.9 333 14.2
2011-07-19 07:22:21 51°19.487 2°50.765 341.3 12.9 338 12.8
2011-07-19 07:23:23 51°19.688 2°50.615 337.5 13 332 11.4
2011-07-19 07:24:21 51°19.875 2°50.461 338.8 13.1 335 13.6
2011-07-19 07:25:23 51°20.081 2°50.321 341.8 13 337 15.4
2011-07-19 07:26:21 51°20.27 2°50.177 336.4 13.1 332 17.4
2011-07-19 07:27:21 51°20.463 2°50.022 339.8 13 335 20.5
2011-07-19 07:28:21 51°20.66 2°49.881 339.3 12.9 335 22.1
2011-07-19 07:29:21 51°20.852 2°49.728 339.3 12.9 335 23
2011-07-19 07:30:21 51°21.048 2°49.591 340 12.9 335 22.5
2011-07-19 07:31:21 51°21.241 2°49.439 338.9 13 336 21.9
2011-07-19 07:32:23 51°21.446 2°49.294 338.5 13 334 20.9
2011-07-19 07:33:21 51°21.631 2°49.138 337.8 13.1 334 22.4
2011-07-19 07:34:23 51°21.83 2°48.977 336.2 13 332 22.9
2011-07-19 07:35:21 51°22.015 2°48.819 335.2 13 331 22.9
2011-07-19 07:36:21 51°22.205 2°48.654 339 13 336 22.9
2011-07-19 07:37:21 51°22.4 2°48.506 337.4 13 332 18.8
2011-07-19 07:38:21 51°22.589 2°48.341 338.4 12.9 334 15.9
2011-07-19 07:39:21 51°22.785 2°48.194 338.4 13 333 18.1
2011-07-19 07:40:21 51°22.975 2°48.026 335.5 13 332 20.1
2011-07-19 07:41:23 51°23.175 2°47.869 339.8 12.9 335 18.2
2011-07-19 07:42:21 51°23.359 2°47.711 335.2 13 331 20.9
2011-07-19 07:43:23 51°23.558 2°47.549 340.3 13 336 22.1
2011-07-19 07:44:21 51°23.747 2°47.406 338.3 13 334 23.1
2011-07-19 07:45:23 51°23.942 2°47.233 335.5 12.9 332 25.4
2011-07-19 07:46:21 51°24.123 2°47.07 336.5 12.9 332 27.3
2011-07-19 07:47:21 51°24.317 2°46.924 340 12.8 335 28.9
2011-07-19 07:48:22 51°24.509 2°46.761 334.7 12.9 330 29.6
2011-07-19 07:49:21 51°24.696 2°46.607 339.8 12.9 335 27.5
2011-07-19 07:50:21 51°24.887 2°46.453 335.5 12.9 330 24.4
2011-07-19 07:51:21 51°25.075 2°46.287 337.2 12.8 332 24.1
2011-07-19 07:52:21 51°25.263 2°46.125 338.3 12.9 334 23.8
2011-07-19 07:53:21 51°25.461 2°45.996 342.2 12.8 336 24.3
2011-07-19 07:54:21 51°25.656 2°45.857 340.5 12.8 336 24.7
2011-07-19 07:55:21 51°25.851 2°45.713 341.9 12.9 338 25.5
2011-07-19 07:56:21 51°26.05 2°45.588 342.1 12.8 338 26.2
2011-07-19 07:57:21 51°26.246 2°45.452 341.1 12.8 336 24.7
2011-07-19 07:58:21 51°26.44 2°45.313 338.9 12.8 334 27.7
2011-07-19 07:59:21 51°26.633 2°45.167 339.5 12.9 334 27.6
2011-07-19 08:00:21 51°26.829 2°45.033 344 12.8 339 27.3
2011-07-19 08:01:21 51°27.024 2°44.898 341.1 12.8 336 28
2011-07-19 08:02:21 51°27.219 2°44.756 341.2 12.9 335 27
2011-07-19 08:03:21 51°27.412 2°44.608 339 12.9 334 23.6
2011-07-19 08:04:21 51°27.608 2°44.473 342.7 12.8 338 25.5
2011-07-19 08:05:21 51°27.805 2°44.344 343 12.8 336 26.7
2011-07-19 08:06:21 51°27.997 2°44.195 339.2 12.8 334 28.7
2011-07-19 08:07:21 51°28.189 2°44.051 340.9 12.7 335 29
2011-07-19 08:08:23 51°28.389 2°43.914 342.7 12.7 337 30.4
2011-07-19 08:09:21 51°28.574 2°43.772 340 12.7 336 29.2
2011-07-19 08:10:21 51°28.769 2°43.638 340.2 12.8 335 29.7
2011-07-19 08:11:21 51°28.962 2°43.493 341.8 12.8 337 28.4
2011-07-19 08:12:21 51°29.159 2°43.371 342.8 12.7 337 29.2
2011-07-19 08:13:21 51°29.35 2°43.227 338.5 12.7 334 29.2
2011-07-19 08:14:21 51°29.547 2°43.121 357.9 12.4 355 30.4
2011-07-19 08:15:21 51°29.749 2°43.166 18.3 12.2 12 30.6
2011-07-19 08:16:21 51°29.949 2°43.231 16.9 12.4 15 29.5
2011-07-19 08:17:23 51°30.158 2°43.296 16.8 12.5 10 29.9
2011-07-19 08:18:22 51°30.358 2°43.352 12.8 12.5 10 31
2011-07-19 08:19:21 51°30.558 2°43.395 14.9 12.3 10 30.1
2011-07-19 08:20:21 51°30.759 2°43.455 14.9 12.3 10 30.1
2011-07-19 08:21:21 51°30.962 2°43.5 10.9 12.3 6 30.4
2011-07-19 08:22:21 51°31.165 2°43.543 12.9 12.3 9 30.4
2011-07-19 08:23:21 51°31.366 2°43.599 15.7 12.3 11 30.8
2011-07-19 08:24:21 51°31.567 2°43.649 12.4 12.3 7 30.6
2011-07-19 08:25:21 51°31.768 2°43.695 13.2 12.2 8 30.5
2011-07-19 08:26:23 51°31.972 2°43.754 20.4 12 18 27.4
2011-07-19 08:27:22 51°32.14 2°43.909 37.8 11.9 34 27.9
2011-07-19 08:28:21 51°32.303 2°44.082 37.3 11.8 35 26.9
2011-07-19 08:29:21 51°32.468 2°44.251 34.2 11.7 32 28
2011-07-19 08:30:21 51°32.639 2°44.406 33.4 11.9 30 28
2011-07-19 08:31:21 51°32.808 2°44.57 34.8 11.7 32 26.8
2011-07-19 08:32:21 51°32.977 2°44.733 33.3 11.8 30 27.4
2011-07-19 08:33:21 51°33.146 2°44.894 33.9 11.7 28 27.6
2011-07-19 08:34:21 51°33.329 2°45.008 22 11.9 17 28.4
2011-07-19 08:35:21 51°33.513 2°45.118 25.9 11.8 22 26
2011-07-19 08:36:21 51°33.698 2°45.233 22.6 11.9 20 27.9
2011-07-19 08:37:21 51°33.885 2°45.339 23.8 11.7 22 28
2011-07-19 08:38:21 51°34.068 2°45.46 25.5 12 24 28.5
2011-07-19 08:39:21 51°34.256 2°45.567 21.2 12 19 27.8
2011-07-19 08:40:21 51°34.443 2°45.678 20.7 11.9 17 26.7
2011-07-19 08:41:21 51°34.639 2°45.746 12.3 12 8 24.4
2011-07-19 08:42:22 51°34.843 2°45.795 13.6 12.1 8 19.7
2011-07-19 08:43:21 51°35.037 2°45.854 17.2 12 12 16.2
2011-07-19 08:44:21 51°35.234 2°45.906 11.7 12 6 13.2
2011-07-19 08:45:21 51°35.429 2°45.967 22 11.9 16 15
2011-07-19 08:46:21 51°35.62 2°46.05 20.1 11.9 14 18.2
2011-07-19 08:47:21 51°35.81 2°46.136 23.5 11.7 17 17.8
2011-07-19 08:48:22 51°36 2°46.232 21.1 11.7 17 19.3
2011-07-19 08:49:22 51°36.189 2°46.32 22.8 11.9 18 20.8
2011-07-19 08:50:22 51°36.376 2°46.413 22.5 11.8 17 20.8
2011-07-19 08:51:22 51°36.565 2°46.508 21.1 11.9 14 22
2011-07-19 08:52:22 51°36.747 2°46.62 30.2 11.4 29 22.2
2011-07-19 08:53:22 51°36.923 2°46.749 25.5 11.7 21 21.4
2011-07-19 08:54:22 51°37.105 2°46.859 30 11.6 26 22.7
2011-07-19 08:55:22 51°37.286 2°46.976 27 11.7 22 20.4
2011-07-19 08:56:22 51°37.467 2°47.089 28.3 11.7 23 20
2011-07-19 08:57:22 51°37.648 2°47.205 26.2 11.7 22 22.1
2011-07-19 08:58:22 51°37.827 2°47.325 27.9 11.7 21 22
2011-07-19 08:59:22 51°38.008 2°47.44 26.2 11.6 21 19.6
2011-07-19 09:00:22 51°38.19 2°47.548 24.6 11.7 22 21.2
2011-07-19 09:01:22 51°38.368 2°47.666 26.1 11.4 21 19.6
2011-07-19 09:02:22 51°38.55 2°47.771 24.7 11.5 21 19.2
2011-07-19 09:03:22 51°38.73 2°47.879 26.6 11.5 23 21.6
2011-07-19 09:04:22 51°38.909 2°47.99 26.8 11.4 22 23.6
2011-07-19 09:05:22 51°39.086 2°48.104 27.6 11.6 23 23.4
2011-07-19 09:06:22 51°39.264 2°48.211 25.4 11.3 20 21.9
2011-07-19 09:07:22 51°39.44 2°48.322 26.9 11.5 22 23.5
2011-07-19 09:08:22 51°39.619 2°48.424 24.3 11.4 20 21.8
2011-07-19 09:09:22 51°39.798 2°48.525 23.3 11.4 19 17.9
2011-07-19 09:10:22 51°39.975 2°48.624 27 11.3 24 17.2
2011-07-19 09:11:22 51°40.153 2°48.734 25.4 11.6 20 23.9
2011-07-19 09:12:22 51°40.331 2°48.84 27.5 11.6 23 23.8
2011-07-19 09:13:22 51°40.511 2°48.948 23.9 11.5 20 26.1
2011-07-19 09:14:22 51°40.69 2°49.056 23.3 11.5 19 25.9
2011-07-19 09:15:22 51°40.869 2°49.165 25.9 11.4 23 25.2
2011-07-19 09:16:22 51°41.046 2°49.273 24.8 11.4 21 26.9
2011-07-19 09:17:22 51°41.222 2°49.389 27 11.5 24 29.2
2011-07-19 09:18:22 51°41.4 2°49.494 20.4 11.6 16 30.5
2011-07-19 09:19:22 51°41.587 2°49.558 17.1 11.5 12 28
2011-07-19 09:20:22 51°41.773 2°49.61 3.6 11.4 352 23.8
2011-07-19 09:21:22 51°41.93 2°49.427 321.7 12.4 315 28
2011-07-19 09:22:22 51°42.076 2°49.19 324.5 12.4 318 28
2011-07-19 09:23:22 51°42.226 2°48.958 323.7 12.5 315 24.5
2011-07-19 09:24:22 51°42.37 2°48.718 317.6 12.5 306 28
2011-07-19 09:25:22 51°42.42 2°48.387 275.2 13.3 268 31
2011-07-19 09:26:22 51°42.343 2°48.057 231.2 13.7 228 33.4
2011-07-19 09:27:22 51°42.161 2°47.833 206.3 13.5 205 33.5
2011-07-19 09:28:22 51°41.94 2°47.754 187.4 13.7 190 30.8
2011-07-19 09:29:22 51°41.716 2°47.675 190 13.8 193 32.5
2011-07-19 09:30:22 51°41.496 2°47.563 196.4 13.9 199 31.2
2011-07-19 09:31:22 51°41.277 2°47.43 199.5 14.1 202 32.3
2011-07-19 09:32:21 51°41.061 2°47.324 191.8 13.9 198 27.9
2011-07-19 09:33:22 51°40.835 2°47.211 195.4 13.9 199 32.3
2011-07-19 09:34:22 51°40.614 2°47.101 191 13.9 195 30.9
2011-07-19 09:35:22 51°40.389 2°47.025 189.5 13.9 195 29.7
2011-07-19 09:36:22 51°40.165 2°46.933 189.8 13.9 193 31.2
2011-07-19 09:37:22 51°39.941 2°46.827 196.8 13.9 199 32.2
2011-07-19 09:38:22 51°39.72 2°46.703 196.2 13.9 200 32.8
2011-07-19 09:39:22 51°39.5 2°46.584 199.3 14 203 33.8
2011-07-19 09:40:22 51°39.285 2°46.441 197.6 14 201 33.4
2011-07-19 09:41:22 51°39.074 2°46.279 206.2 14.1 207 32.6
2011-07-19 09:42:22 51°38.865 2°46.106 205 14.1 208 33
2011-07-19 09:43:22 51°38.654 2°45.94 199.2 14 199 35.2
2011-07-19 09:44:22 51°38.427 2°45.867 185.2 14 189 35.9
2011-07-19 09:45:22 51°38.197 2°45.799 186.9 14.1 191 32.4
2011-07-19 09:46:22 51°37.971 2°45.697 198.7 14.2 202 34.2
2011-07-19 09:47:22 51°37.753 2°45.55 199.1 14.2 202 34.5
2011-07-19 09:48:22 51°37.532 2°45.424 196.1 14.1 200 34.4
2011-07-19 09:49:22 51°37.309 2°45.298 196.2 14.2 199 34.7
2011-07-19 09:50:22 51°37.09 2°45.153 200 14.2 202 35.1
2011-07-19 09:51:22 51°36.872 2°45.013 198.2 14.1 201 36.1
2011-07-19 09:52:22 51°36.652 2°44.88 195.5 14.1 199 36.1
2011-07-19 09:53:22 51°36.431 2°44.75 196.6 14.1 201 37.4
2011-07-19 09:54:22 51°36.213 2°44.604 199.7 14.1 204 36.5
2011-07-19 09:55:22 51°35.994 2°44.469 197.2 14.2 201 34.4
2011-07-19 09:56:22 51°35.772 2°44.349 188.5 13.9 193 35.8
2011-07-19 09:57:22 51°35.545 2°44.266 186.6 14 191 34.7
2011-07-19 09:58:22 51°35.315 2°44.204 185.4 14 192 35.4
2011-07-19 09:59:22 51°35.086 2°44.129 183.7 14 190 35.6
2011-07-19 10:00:22 51°34.856 2°44.069 183.4 14.1 189 34.6
2011-07-19 10:01:22 51°34.628 2°43.988 187.8 14 193 31.7
2011-07-19 10:02:22 51°34.398 2°43.926 184.2 14 190 30.3
2011-07-19 10:03:23 51°34.164 2°43.861 186.2 14 191 29.8
2011-07-19 10:04:22 51°33.941 2°43.783 186.2 14 192 30
2011-07-19 10:05:22 51°33.713 2°43.719 182.9 13.9 188 28.4
2011-07-19 10:06:22 51°33.485 2°43.654 187.6 13.9 193 26.9
2011-07-19 10:07:22 51°33.314 2°43.421 237 14 235 28.5
2011-07-19 10:08:22 51°33.177 2°43.114 233.8 14.3 234 30.7
2011-07-19 10:09:22 51°33.047 2°42.797 239.6 14.2 237 31.3
2011-07-19 10:10:22 51°32.908 2°42.488 234.6 14.4 234 32.6
2011-07-19 10:11:22 51°32.792 2°42.155 243.8 14.3 242 33.8
2011-07-19 10:12:22 51°32.675 2°41.822 239.1 14.3 236 34.7
2011-07-19 10:13:22 51°32.549 2°41.499 240.6 14.2 239 37.7
2011-07-19 10:14:22 51°32.43 2°41.168 239.6 14.4 237 36.9
2011-07-19 10:15:22 51°32.346 2°40.826 273.3 13.4 271 36.8
2011-07-19 10:16:22 51°32.365 2°40.468 277 13.7 270 37.2
2011-07-19 10:17:22 51°32.474 2°40.236 352.9 10.7 349 35.2
2011-07-19 10:18:21 51°32.644 2°40.294 18.2 11 12 37.7
2011-07-19 10:19:23 51°32.825 2°40.37 19.6 10.9 17 38.2
2011-07-19 10:20:22 51°32.993 2°40.462 22.6 10.8 18 38.5
2011-07-19 10:21:22 51°33.167 2°40.54 18.6 10.8 16 38.5
2011-07-19 10:22:21 51°33.338 2°40.624 19.7 10.8 16 38.8
2011-07-19 10:23:21 51°33.509 2°40.718 21.1 10.9 16 38.6
2011-07-19 10:24:22 51°33.685 2°40.795 19.3 10.7 16 39.5
2011-07-19 10:25:21 51°33.85 2°40.887 20.7 10.7 17 39.4
2011-07-19 10:26:21 51°34.021 2°40.964 19.8 10.6 16 38.4
2011-07-19 10:27:22 51°34.19 2°41.059 21.9 10.7 19 37.7
2011-07-19 10:28:21 51°34.356 2°41.14 18.4 10.6 17 38.7
2011-07-19 10:29:21 51°34.527 2°41.22 18.4 10.7 14 39.3
2011-07-19 10:30:22 51°34.698 2°41.31 20.8 10.6 18 39.6
2011-07-19 10:31:21 51°34.864 2°41.394 22.2 10.6 20 40.7
2011-07-19 10:32:23 51°35.04 2°41.484 18.7 10.8 15 38.3
2011-07-19 10:33:22 51°35.209 2°41.559 21.1 10.7 18 37.9
2011-07-19 10:34:21 51°35.374 2°41.646 19.3 10.7 16 38.8
2011-07-19 10:35:21 51°35.546 2°41.724 19.7 10.6 18 39.3
2011-07-19 10:36:22 51°35.716 2°41.818 21.3 10.5 17 39.3
2011-07-19 10:37:21 51°35.883 2°41.904 20.6 10.8 17 39.4
2011-07-19 10:38:21 51°36.055 2°41.983 20.4 10.8 18 38.7
2011-07-19 10:39:23 51°36.232 2°42.072 21.8 10.8 19 36.3
2011-07-19 10:40:22 51°36.398 2°42.168 21.3 10.8 18 37.5
2011-07-19 10:41:21 51°36.569 2°42.242 19.1 10.9 16 36.7
2011-07-19 10:42:21 51°36.739 2°42.333 20.2 10.7 17 36.4
2011-07-19 10:43:22 51°36.913 2°42.412 22.3 10.7 22 36.2
2011-07-19 10:44:21 51°37.07 2°42.532 27.3 10.6 24 36.2
2011-07-19 10:45:21 51°37.237 2°42.633 21.9 10.8 17 37.1
2011-07-19 10:46:22 51°37.407 2°42.735 25.3 10.6 23 36.1
2011-07-19 10:47:21 51°37.572 2°42.829 21.9 10.7 17 35.9
2011-07-19 10:48:21 51°37.741 2°42.924 24.8 10.8 23 37.1
2011-07-19 10:49:21 51°37.907 2°43.026 21.6 10.7 17 37.3
2011-07-19 10:50:22 51°38.077 2°43.122 25.9 10.7 21 37
2011-07-19 10:51:22 51°38.245 2°43.218 22 10.8 16 35.7
2011-07-19 10:52:21 51°38.413 2°43.299 22.7 10.7 19 36.2
2011-07-19 10:53:21 51°38.578 2°43.401 24.2 10.7 19 36.5
2011-07-19 10:54:21 51°38.744 2°43.501 24.6 10.7 21 37.6
2011-07-19 10:55:21 51°38.915 2°43.585 21.2 10.7 17 36.2
2011-07-19 10:56:22 51°39.087 2°43.675 24.1 10.7 20 37.2
2011-07-19 10:57:22 51°39.257 2°43.761 20.4 10.7 15 37.4
2011-07-19 10:58:21 51°39.422 2°43.856 25.2 10.7 21 36.4
2011-07-19 10:59:23 51°39.599 2°43.944 21.7 10.7 18 35.8
2011-07-19 11:00:21 51°39.762 2°44.036 25.2 10.8 19 37.1
2011-07-19 11:01:21 51°39.93 2°44.129 21.9 10.8 16 34.9
2011-07-19 11:02:21 51°40.101 2°44.214 25 10.7 21 37
2011-07-19 11:03:22 51°40.273 2°44.308 21.2 10.7 15 35.6
2011-07-19 11:04:21 51°40.443 2°44.387 21 10.8 16 35.8
2011-07-19 11:05:22 51°40.617 2°44.477 25.4 10.8 22 35.5
2011-07-19 11:06:23 51°40.788 2°44.581 24.8 10.9 18 38
2011-07-19 11:07:21 51°40.955 2°44.664 21.9 11 16 34.9
2011-07-19 11:08:21 51°41.127 2°44.753 25.7 10.9 21 37
2011-07-19 11:09:22 51°41.302 2°44.846 22.8 11 17 37
2011-07-19 11:10:23 51°41.479 2°44.933 22.2 10.9 17 36.7
2011-07-19 11:11:23 51°41.65 2°45.033 24.9 10.9 18 39
2011-07-19 11:12:21 51°41.817 2°45.114 22.6 11 19 35.9
2011-07-19 11:13:21 51°41.99 2°45.208 23.1 11 18 35.8
2011-07-19 11:14:21 51°42.164 2°45.295 21.3 11.1 17 34.4
2011-07-19 11:15:22 51°42.341 2°45.39 25.3 11 21 40.2
2011-07-19 11:16:21 51°42.512 2°45.481 21.8 11 17 31.7
2011-07-19 11:17:22 51°42.686 2°45.575 23.4 11 20 38.8
2011-07-19 11:18:22 51°42.86 2°45.672 24.1 10.9 19 37.3
2011-07-19 11:19:21 51°43.029 2°45.77 22.9 11 17 37.3
2011-07-19 11:20:21 51°43.204 2°45.852 22.2 10.9 17 37
2011-07-19 11:21:21 51°43.376 2°45.944 25.8 10.9 19 35.7
2011-07-19 11:22:22 51°43.555 2°45.975 352.8 11.2 339 35.5
2011-07-19 11:23:21 51°43.7 2°45.775 318.8 12.4 306 34.9
2011-07-19 11:24:22 51°43.824 2°45.504 316.8 12.4 308 37.1
2011-07-19 11:25:21 51°43.955 2°45.256 319.8 12.4 309 38.7
2011-07-19 11:26:22 51°44.085 2°44.991 316.1 12.4 308 39.1
2011-07-19 11:27:21 51°44.215 2°44.743 322.6 12.2 312 41.5
2011-07-19 11:28:21 51°44.351 2°44.499 320.7 12.3 310 37.2
2011-07-19 11:29:21 51°44.474 2°44.235 308.2 12.4 295 38.2
2011-07-19 11:30:21 51°44.451 2°43.904 244.6 13.5 236 35.9
2011-07-19 11:31:21 51°44.259 2°43.729 190.2 13.8 191 35.5
2011-07-19 11:32:21 51°44.028 2°43.708 176.5 14 180 37.7
2011-07-19 11:33:23 51°43.786 2°43.699 178.3 13.9 181 36.6
2011-07-19 11:34:21 51°43.562 2°43.67 180.7 14 183 41
2011-07-19 11:35:21 51°43.33 2°43.657 178.5 14 182 36.7
2011-07-19 11:36:21 51°43.099 2°43.636 185.9 14 191 37.6
2011-07-19 11:37:21 51°42.876 2°43.521 198.7 14 201 35.4
2011-07-19 11:38:21 51°42.653 2°43.399 197.5 14.3 198 38.1
2011-07-19 11:39:21 51°42.427 2°43.295 191 14.1 193 34.2
2011-07-19 11:40:23 51°42.194 2°43.182 197.3 14.1 198 34
2011-07-19 11:41:21 51°41.976 2°43.075 192.7 14.2 195 34.7
2011-07-19 11:42:23 51°41.74 2°42.977 192.6 14 194 33.7
2011-07-19 11:43:21 51°41.522 2°42.87 195.8 14.2 198 34.6
2011-07-19 11:44:21 51°41.297 2°42.757 194.2 14.1 196 30.8
2011-07-19 11:45:21 51°41.07 2°42.661 192.9 14.1 195 34.3
2011-07-19 11:46:21 51°40.846 2°42.548 195.6 14.1 198 32
2011-07-19 11:47:22 51°40.619 2°42.447 193.8 14 196 32.7
2011-07-19 11:48:21 51°40.401 2°42.332 195.3 14 197 32.5
2011-07-19 11:49:21 51°40.175 2°42.23 193.7 14.1 194 31.5
2011-07-19 11:50:21 51°39.951 2°42.118 195.4 14 197 30.3
2011-07-19 11:51:21 51°39.726 2°42.016 192.3 14.1 194 28.3
2011-07-19 11:52:21 51°39.502 2°41.91 196.3 14.1 198 27.7
2011-07-19 11:53:22 51°39.275 2°41.785 195.4 14 199 23.8
2011-07-19 11:54:22 51°39.049 2°41.679 191.4 14.1 195 21.2
2011-07-19 11:55:21 51°38.83 2°41.565 195 14.2 197 19.1
2011-07-19 11:56:21 51°38.607 2°41.449 193.2 14 196 20.9
2011-07-19 11:57:21 51°38.384 2°41.336 194.9 14 200 25.5
2011-07-19 11:58:21 51°38.162 2°41.229 192.4 14.1 197 25.1
2011-07-19 11:59:21 51°37.942 2°41.109 194.8 14 199 25.2
2011-07-19 12:00:22 51°37.718 2°40.985 194.6 13.9 197 23.7
2011-07-19 12:01:22 51°37.496 2°40.881 194.6 14 199 21
2011-07-19 12:02:21 51°37.28 2°40.768 193.5 13.9 198 21.9
2011-07-19 12:03:21 51°37.06 2°40.655 197 13.9 200 20.5
2011-07-19 12:04:21 51°36.841 2°40.535 193.1 13.9 197 21.9
2011-07-19 12:05:21 51°36.622 2°40.423 196.1 13.9 200 22.9
2011-07-19 12:06:21 51°36.403 2°40.306 193.1 13.8 197 24.7
2011-07-19 12:07:22 51°36.179 2°40.199 194.8 13.8 197 26.7
2011-07-19 12:08:21 51°35.963 2°40.093 192.3 13.8 194 26.4
2011-07-19 12:09:21 51°35.745 2°39.978 197.3 13.7 200 28.7
2011-07-19 12:10:21 51°35.525 2°39.871 192.4 13.8 195 29.4
2011-07-19 12:11:21 51°35.308 2°39.756 196.8 13.7 200 33.1
2011-07-19 12:12:21 51°35.091 2°39.649 193.2 13.7 196 28
2011-07-19 12:13:21 51°34.873 2°39.541 196.8 13.8 201 28.3
2011-07-19 12:14:22 51°34.657 2°39.404 199.2 13.7 203 26.2
2011-07-19 12:15:21 51°34.449 2°39.278 198 13.7 201 29
2011-07-19 12:16:21 51°34.235 2°39.151 197.4 13.7 200 28.3
2011-07-19 12:17:21 51°34.018 2°39.042 194.9 13.7 198 25.8
2011-07-19 12:18:21 51°33.807 2°38.909 198.8 13.7 200 22.2
2011-07-19 12:19:21 51°33.589 2°38.794 194.9 13.7 199 23.6
2011-07-19 12:20:21 51°33.377 2°38.661 199.3 13.8 202 23.4
2011-07-19 12:21:22 51°33.16 2°38.539 195.1 13.6 197 21.4
2011-07-19 12:22:21 51°32.948 2°38.423 196.7 13.6 199 20.6
2011-07-19 12:23:21 51°32.734 2°38.301 196.3 13.6 199 20.5
2011-07-19 12:24:21 51°32.521 2°38.174 200.7 13.6 201 20.1
2011-07-19 12:25:21 51°32.306 2°38.058 192.9 13.7 196 18.5
2011-07-19 12:26:21 51°32.091 2°37.943 198.5 13.7 201 18
2011-07-19 12:27:21 51°31.875 2°37.831 192.3 13.6 196 17.3
2011-07-19 12:28:22 51°31.655 2°37.715 195.5 13.7 198 18.1
2011-07-19 12:29:21 51°31.443 2°37.599 194.9 13.8 197 19.7
2011-07-19 12:30:21 51°31.224 2°37.494 193.9 13.8 196 20.4
2011-07-19 12:31:21 51°31.007 2°37.377 198.2 14 201 21.4
2011-07-19 12:32:21 51°30.792 2°37.254 195.2 13.7 196 22.7
2011-07-19 12:33:21 51°30.573 2°37.152 195.7 13.7 199 24.1
2011-07-19 12:34:22 51°30.354 2°37.035 193.6 13.6 195 23.8
2011-07-19 12:35:22 51°30.138 2°36.93 197.9 13.6 200 26
2011-07-19 12:36:21 51°29.928 2°36.815 195.3 13.5 196 27.7
2011-07-19 12:37:21 51°29.711 2°36.72 193.8 13.6 196 26.7
2011-07-19 12:38:21 51°29.497 2°36.605 197.8 13.6 198 28.4
2011-07-19 12:39:21 51°29.283 2°36.501 187 13.2 186 28.5
2011-07-19 12:40:22 51°29.083 2°36.615 137.4 12.8 141 25
2011-07-19 12:41:21 51°28.93 2°36.848 129.4 12.9 134 30
2011-07-19 12:42:21 51°28.771 2°37.078 136.5 13 142 37.5
2011-07-19 12:43:23 51°28.598 2°37.304 133.9 13 140 38.5
2011-07-19 12:44:21 51°28.428 2°37.502 138 13.1 143 36.4
2011-07-19 12:45:22 51°28.26 2°37.731 133.7 13.2 140 37.6
2011-07-19 12:46:21 51°28.095 2°37.948 136.7 13.1 142 39.7
2011-07-19 12:47:21 51°27.925 2°38.162 133.2 12.8 138 36
2011-07-19 12:48:22 51°27.756 2°38.389 137 13.2 143 33.5
2011-07-19 12:49:21 51°27.591 2°38.604 132.6 12.9 138 34.1
2011-07-19 12:50:22 51°27.423 2°38.83 135.1 13 142 35
2011-07-19 12:51:21 51°27.256 2°39.044 134.6 12.9 140 35.7
2011-07-19 12:52:21 51°27.091 2°39.267 134.6 13 140 35
2011-07-19 12:53:21 51°26.928 2°39.494 136.5 13.1 142 33
2011-07-19 12:54:21 51°26.759 2°39.711 134.4 13.1 139 33.7
2011-07-19 12:55:21 51°26.597 2°39.941 137.3 13.1 141 32.9
2011-07-19 12:56:21 51°26.43 2°40.163 135.3 13 139 32.6
2011-07-19 12:57:22 51°26.264 2°40.393 137 13 141 32.5
2011-07-19 12:58:21 51°26.104 2°40.615 133.6 12.9 137 31.8
2011-07-19 12:59:21 51°25.948 2°40.848 132 12.7 138 30.3
2011-07-19 13:00:22 51°25.783 2°41.074 137.3 12.9 140 30.2
2011-07-19 13:01:22 51°25.621 2°41.298 133 12.9 137 28.4
2011-07-19 13:02:21 51°25.469 2°41.529 136.2 12.9 140 28.9
2011-07-19 13:03:22 51°25.303 2°41.754 135.7 12.8 138 27.1
2011-07-19 13:04:21 51°25.151 2°41.986 135.3 12.8 138 27
2011-07-19 13:05:22 51°24.992 2°42.225 134.9 12.9 138 26.6
2011-07-19 13:06:21 51°24.829 2°42.443 137.8 13 140 22.7
2011-07-19 13:07:21 51°24.666 2°42.67 136.4 12.9 138 25.3
2011-07-19 13:08:22 51°24.511 2°42.918 133.1 12.9 133 20.3
2011-07-19 13:09:21 51°24.362 2°43.159 133.4 12.9 135 25.4
2011-07-19 13:10:21 51°24.203 2°43.393 138.3 13.1 138 27.3
2011-07-19 13:11:22 51°24.048 2°43.637 133.2 12.9 134 28.6
2011-07-19 13:12:21 51°23.899 2°43.877 134.8 12.9 136 28.9
2011-07-19 13:13:22 51°23.735 2°44.111 137.9 13.1 137 27.3
2011-07-19 13:14:21 51°23.583 2°44.349 135.8 12.9 137 29.4
2011-07-19 13:15:21 51°23.455 2°44.616 121.1 12.7 121 29
2011-07-19 13:16:21 51°23.339 2°44.899 123.9 12.7 126 28.5
2011-07-19 13:17:22 51°23.167 2°45.084 166.4 12.7 170 28.7
2011-07-19 13:18:22 51°22.952 2°45.106 176.7 12.9 177 28.7
2011-07-19 13:19:22 51°22.738 2°45.128 176.1 12.9 176 27
2011-07-19 13:20:21 51°22.533 2°45.196 160.4 12.6 156 27.5
2011-07-19 13:21:23 51°22.344 2°45.38 146.3 13 146 25.6
2011-07-19 13:22:21 51°22.172 2°45.569 144.5 13.1 143 24.2
2011-07-19 13:23:21 51°22.003 2°45.788 141.7 13.1 140 23.6
2011-07-19 13:24:21 51°21.829 2°45.996 146.7 13.1 145 24.9
2011-07-19 13:25:22 51°21.658 2°46.215 137.8 13.1 136 27.1
2011-07-19 13:26:23 51°21.497 2°46.46 138 13 136 27.5
2011-07-19 13:27:21 51°21.337 2°46.677 143.2 13.1 140 24.1
2011-07-19 13:28:22 51°21.175 2°46.919 136.2 13.1 134 25.5
2011-07-19 13:29:21 51°21.029 2°47.172 136.5 13.1 134 24.7
2011-07-19 13:30:21 51°20.87 2°47.415 140.2 13.1 138 21.7
2011-07-19 13:31:22 51°20.712 2°47.663 135.8 13.2 133 21.4
2011-07-19 13:32:21 51°20.564 2°47.905 137.7 12.9 136 22.8
2011-07-19 13:33:22 51°20.403 2°48.14 139.3 12.8 138 24.1
2011-07-19 13:34:21 51°20.25 2°48.372 137.4 13 135 25
2011-07-19 13:35:23 51°20.09 2°48.619 140.5 12.9 138 24.9
2011-07-19 13:36:21 51°19.934 2°48.837 138.7 12.8 136 23.8
2011-07-19 13:37:22 51°19.777 2°49.076 141.5 13 139 21.1
2011-07-19 13:38:21 51°19.62 2°49.307 138.5 13.1 135 18.5
2011-07-19 13:39:21 51°19.461 2°49.545 142.3 13.1 141 17
2011-07-19 13:40:22 51°19.29 2°49.771 142.6 13.2 140 15.3
2011-07-19 13:41:21 51°19.136 2°50.009 136.4 13.2 133 14.1
2011-07-19 13:42:21 51°18.978 2°50.254 139.8 13.3 137 15.7
2011-07-19 13:43:22 51°18.81 2°50.479 144.8 12.9 139 17.1
2011-07-19 13:44:23 51°18.651 2°50.718 141 12.9 138 17.2
2011-07-19 13:45:21 51°18.49 2°50.927 146.2 13 141 16.6
2011-07-19 13:46:23 51°18.322 2°51.163 144.7 13.1 140 15.8
2011-07-19 13:47:21 51°18.159 2°51.369 146.4 13.1 142 14.5
2011-07-19 13:48:21 51°17.989 2°51.581 148.3 12.9 145 13.6
2011-07-19 13:49:21 51°17.808 2°51.756 154.7 12.7 148 13
2011-07-19 13:50:22 51°17.627 2°51.946 154.2 12.8 149 13.3
2011-07-19 13:51:23 51°17.442 2°52.115 153.7 12.6 147 14.2
2011-07-19 13:52:21 51°17.267 2°52.278 156.4 12.7 149 13.6
2011-07-19 13:53:22 51°17.085 2°52.452 158.9 12.5 152 12.8
2011-07-19 13:54:21 51°16.902 2°52.599 159.1 12.5 153 12.9
2011-07-19 13:55:21 51°16.72 2°52.765 154.9 12.8 147 13.6
2011-07-19 13:56:22 51°16.531 2°52.928 161.2 12.6 154 14.7
2011-07-19 13:57:21 51°16.349 2°53.078 158 12.8 149 14.9
2011-07-19 13:58:22 51°16.163 2°53.252 158.2 12.6 151 14.8
2011-07-19 13:59:21 51°15.981 2°53.407 162.5 12.4 155 14.5
2011-07-19 14:00:21 51°15.795 2°53.549 161.2 12.5 153 15.2
2011-07-19 14:01:21 51°15.613 2°53.711 154.2 12.6 147 15.2
2011-07-19 14:02:21 51°15.437 2°53.889 156.9 12.6 150 15.3
2011-07-19 14:03:22 51°15.257 2°54.072 151 12.6 143 14.9
2011-07-19 14:04:23 51°15.086 2°54.272 148.2 12.5 139 14.1
2011-07-19 14:05:22 51°14.925 2°54.486 145.9 12.9 138 15.1
2011-07-19 14:06:21 51°14.771 2°54.718 146 13 139 15
2011-07-19 14:07:22 51°14.607 2°54.95 147.2 12.8 141 15
2011-07-19 14:08:22 51°14.434 2°55.134 150.3 12 149 13.9
2011-07-19 14:09:22 51°14.279 2°55.284 150.6 8.9 151 14.2
2011-07-19 14:10:22 51°14.167 2°55.382 152.7 7.2 152 14.3
2011-07-19 14:11:23 51°14.056 2°55.467 156.1 7.1 156 14.3
2011-07-19 14:12:22 51°13.95 2°55.543 156.6 7 156 14.3
2011-07-19 14:13:22 51°13.844 2°55.618 155.8 6.7 154 14.2
2011-07-19 14:14:21 51°13.764 2°55.705 137.3 5.2 137 14.3
2011-07-19 14:15:22 51°13.709 2°55.802 129.5 4.6 129 -999
2011-07-19 14:16:22 51°13.668 2°55.894 121.8 3.9 121 13.3
2011-07-19 14:17:21 51°13.645 2°55.974 108 3.1 108 11.7